Time;durP1;ratioP1;P1;durP2;ratioP2;P2;SDS_P1;SDS_P2;PMS_P1;PMS_P2;Temp;Humidity;BMP_temperature;BMP_pressure;BME280_temperature;BME280_humidity;BME280_pressure;Samples;Min_cycle;Max_cycle;Signal;HPM_P1;HPM_P2
2023/08/11 00:00:08;;;;;;;7.00;5.40;;;18.10;99.90;;;;;;5054131;28;20066;-70
2023/08/11 00:02:34;;;;;;;6.88;4.32;;;18.30;99.90;;;;;;5045609;28;20045;-70
2023/08/11 00:05:00;;;;;;;5.82;4.50;;;18.20;99.90;;;;;;5054086;28;20045;-70
2023/08/11 00:07:26;;;;;;;7.28;4.93;;;18.30;99.90;;;;;;5053830;28;20041;-70
2023/08/11 00:09:51;;;;;;;9.25;4.88;;;18.20;99.90;;;;;;5050609;28;20041;-70
2023/08/11 00:12:17;;;;;;;4.38;3.90;;;17.90;99.90;;;;;;5030987;28;20041;-70
2023/08/11 00:14:42;;;;;;;7.47;4.50;;;18.20;99.90;;;;;;5035959;28;20428;-70
2023/08/11 00:17:08;;;;;;;8.07;5.28;;;18.10;99.90;;;;;;5053632;28;20491;-70
2023/08/11 00:19:34;;;;;;;6.22;4.60;;;17.90;99.90;;;;;;5035752;28;20051;-70
2023/08/11 00:21:59;;;;;;;9.65;4.88;;;18.10;99.90;;;;;;5053932;28;20112;-70
2023/08/11 00:24:25;;;;;;;8.98;5.68;;;17.90;99.90;;;;;;5035875;28;20128;-70
2023/08/11 00:26:51;;;;;;;6.05;4.80;;;17.90;99.90;;;;;;5035487;28;20095;-70
2023/08/11 00:29:16;;;;;;;6.55;4.95;;;17.70;99.90;;;;;;5053512;28;20041;-70
2023/08/11 00:31:42;;;;;;;8.23;4.80;;;17.80;99.90;;;;;;5053530;28;20037;-70
2023/08/11 00:34:08;;;;;;;5.55;4.88;;;17.90;99.90;;;;;;5053386;28;20052;-70
2023/08/11 00:36:34;;;;;;;6.15;5.00;;;17.90;99.90;;;;;;5053275;28;20043;-70
2023/08/11 00:39:00;;;;;;;7.25;4.88;;;17.50;99.90;;;;;;5034804;28;20037;-70
2023/08/11 00:41:30;;;;;;;8.82;5.07;;;17.70;99.90;;;;;;5053439;28;20090;-70
2023/08/11 00:43:55;;;;;;;8.57;5.43;;;17.60;99.90;;;;;;5053379;28;20416;-70
2023/08/11 00:46:24;;;;;;;7.32;5.53;;;17.50;99.90;;;;;;5053072;28;20047;-70
2023/08/11 00:48:51;;;;;;;6.53;5.40;;;17.50;99.90;;;;;;5026205;28;20388;-70
2023/08/11 00:51:18;;;;;;;6.10;5.50;;;17.40;99.90;;;;;;5053352;28;20064;-69
2023/08/11 00:53:48;;;;;;;6.95;5.53;;;17.50;99.90;;;;;;5053086;28;20412;-70
2023/08/11 00:56:14;;;;;;;9.98;5.85;;;17.20;99.90;;;;;;5053038;28;20079;-70
2023/08/11 00:58:42;;;;;;;9.77;5.85;;;17.10;99.90;;;;;;5034980;28;20041;-70
2023/08/11 01:01:07;;;;;;;5.85;5.25;;;17.20;99.90;;;;;;5026666;28;20408;-70
2023/08/11 01:03:34;;;;;;;8.90;6.13;;;17.20;99.90;;;;;;5035385;28;20040;-70
2023/08/11 01:06:13;;;;;;;6.75;5.50;;;17.20;99.90;;;;;;5034902;28;20048;-70
2023/08/11 01:08:58;;;;;;;9.95;6.28;;;17.20;99.90;;;;;;5052550;28;20523;-70
2023/08/11 01:11:33;;;;;;;7.63;5.68;;;16.90;99.90;;;;;;5034808;28;20049;-70
2023/08/11 01:14:09;;;;;;;9.77;5.72;;;17.10;99.90;;;;;;5052679;28;20056;-70
2023/08/11 01:16:36;;;;;;;8.32;6.25;;;17.30;99.90;;;;;;5052735;28;20601;-70
2023/08/11 01:19:05;;;;;;;7.07;6.38;;;17.10;99.90;;;;;;5052418;28;20516;-70
2023/08/11 01:21:34;;;;;;;9.68;6.25;;;17.00;99.90;;;;;;5034804;28;20098;-70
2023/08/11 01:24:00;;;;;;;10.38;6.60;;;16.90;99.90;;;;;;5052422;28;20041;-70
2023/08/11 01:26:26;;;;;;;8.88;6.63;;;17.20;99.90;;;;;;5018056;28;20048;-70
2023/08/11 01:28:53;;;;;;;10.30;6.85;;;17.00;99.90;;;;;;5034448;28;20508;-70
2023/08/11 01:31:19;;;;;;;11.57;7.63;;;16.90;99.90;;;;;;5052540;28;20052;-70
2023/08/11 01:33:45;;;;;;;9.02;6.93;;;17.10;99.90;;;;;;5052314;28;20571;-70
2023/08/11 01:36:10;;;;;;;10.23;7.20;;;16.80;99.90;;;;;;5034419;28;20044;-70
2023/08/11 01:38:36;;;;;;;10.80;6.90;;;17.00;99.90;;;;;;5051911;28;20048;-70
2023/08/11 01:41:02;;;;;;;14.38;8.00;;;16.90;99.90;;;;;;5052291;28;20110;-70
2023/08/11 01:43:29;;;;;;;11.73;8.07;;;16.80;99.90;;;;;;5034340;28;20444;-70
2023/08/11 01:45:56;;;;;;;10.20;7.93;;;16.70;99.90;;;;;;5052164;28;20041;-70
2023/08/11 01:48:22;;;;;;;10.15;8.05;;;16.60;99.90;;;;;;5051916;28;20531;-70
2023/08/11 01:50:47;;;;;;;9.77;8.23;;;16.80;99.90;;;;;;5033498;28;20076;-70
2023/08/11 01:53:13;;;;;;;8.65;7.70;;;16.60;99.90;;;;;;5034093;28;20473;-70
2023/08/11 01:55:40;;;;;;;10.90;8.40;;;16.70;99.90;;;;;;5052119;28;20094;-73
2023/08/11 01:58:06;;;;;;;9.45;7.88;;;16.80;99.90;;;;;;5033880;28;20497;-72
2023/08/11 02:00:31;;;;;;;8.95;7.78;;;16.60;99.90;;;;;;5034073;28;20047;-72
2023/08/11 02:02:58;;;;;;;10.10;8.05;;;16.70;99.90;;;;;;5034097;28;20040;-72
2023/08/11 02:05:24;;;;;;;10.82;8.55;;;16.60;99.90;;;;;;5051734;28;20045;-72
2023/08/11 02:07:51;;;;;;;13.15;8.57;;;16.60;99.90;;;;;;5051405;28;20111;-72
2023/08/11 02:10:16;;;;;;;14.82;9.05;;;16.40;99.90;;;;;;5051843;28;20040;-72
2023/08/11 02:12:42;;;;;;;11.93;8.32;;;16.30;99.90;;;;;;5033881;28;20492;-72
2023/08/11 02:15:08;;;;;;;11.43;8.68;;;16.40;99.90;;;;;;5034104;28;20044;-72
2023/08/11 02:17:34;;;;;;;10.23;8.70;;;16.60;99.90;;;;;;5033589;28;20033;-73
2023/08/11 02:20:10;;;;;;;10.73;8.55;;;16.30;99.90;;;;;;5033735;28;20041;-72
2023/08/11 02:22:36;;;;;;;11.98;8.60;;;16.50;99.90;;;;;;5051889;28;20037;-72
2023/08/11 02:25:02;;;;;;;11.30;9.18;;;16.40;99.90;;;;;;5051558;28;20045;-72
2023/08/11 02:27:27;;;;;;;13.80;8.30;;;16.40;99.90;;;;;;5033817;28;20573;-72
2023/08/11 02:29:53;;;;;;;13.13;9.07;;;16.50;99.90;;;;;;5051638;28;20037;-72
2023/08/11 02:32:19;;;;;;;15.02;8.60;;;16.40;99.90;;;;;;5051470;28;20076;-72
2023/08/11 02:34:45;;;;;;;12.25;9.70;;;16.20;99.90;;;;;;5033547;28;20051;-72
2023/08/11 02:37:10;;;;;;;10.88;9.07;;;16.10;99.90;;;;;;5033474;28;20507;-72
2023/08/11 02:39:36;;;;;;;11.23;9.35;;;16.10;99.90;;;;;;5033688;28;20029;-72
2023/08/11 02:42:02;;;;;;;12.18;9.10;;;16.20;99.90;;;;;;5033862;28;20132;-72
2023/08/11 02:44:28;;;;;;;9.95;8.90;;;16.20;99.90;;;;;;5051541;28;20048;-72
2023/08/11 02:46:53;;;;;;;12.70;9.65;;;16.30;99.90;;;;;;5051237;28;20389;-73
2023/08/11 02:49:19;;;;;;;12.52;9.55;;;16.00;99.90;;;;;;5033270;28;20426;-73
2023/08/11 02:51:45;;;;;;;13.13;9.70;;;16.20;99.90;;;;;;5051569;28;20404;-72
2023/08/11 02:54:11;;;;;;;11.75;9.43;;;16.20;99.90;;;;;;5033514;28;20416;-72
2023/08/11 02:56:36;;;;;;;13.00;9.75;;;15.90;99.90;;;;;;5033236;28;20047;-73
2023/08/11 02:59:03;;;;;;;12.82;9.60;;;15.90;99.90;;;;;;5051252;28;20041;-72
2023/08/11 03:01:28;;;;;;;11.88;9.80;;;16.00;99.90;;;;;;5052606;28;20083;-70
2023/08/11 03:03:54;;;;;;;14.25;10.88;;;16.10;99.90;;;;;;5055199;28;20045;-70
2023/08/11 03:06:19;;;;;;;13.73;10.27;;;16.00;99.90;;;;;;5020661;28;20099;-70
2023/08/11 03:08:45;;;;;;;13.20;10.85;;;15.80;99.90;;;;;;5055014;28;20053;-70
2023/08/11 03:11:10;;;;;;;17.77;11.23;;;16.00;99.90;;;;;;5055316;28;20047;-70
2023/08/11 03:13:36;;;;;;;13.98;11.35;;;16.00;99.90;;;;;;5037112;28;20045;-70
2023/08/11 03:16:02;;;;;;;14.98;10.95;;;16.00;99.90;;;;;;5037345;28;20033;-70
2023/08/11 03:18:28;;;;;;;15.20;11.02;;;15.80;99.90;;;;;;5054670;28;20033;-69
2023/08/11 03:20:54;;;;;;;15.52;11.90;;;15.90;99.90;;;;;;5055079;28;20037;-70
2023/08/11 03:23:20;;;;;;;18.70;12.73;;;16.10;99.90;;;;;;5055056;28;20103;-70
2023/08/11 03:25:45;;;;;;;14.93;11.52;;;16.10;99.90;;;;;;5054749;28;20106;-70
2023/08/11 03:28:11;;;;;;;17.63;11.70;;;16.00;99.90;;;;;;5054422;28;20104;-70
2023/08/11 03:30:37;;;;;;;14.50;11.52;;;15.70;99.90;;;;;;5054801;28;20080;-70
2023/08/11 03:33:03;;;;;;;13.20;10.55;;;15.70;99.90;;;;;;5054612;28;20049;-70
2023/08/11 03:35:31;;;;;;;17.23;11.77;;;15.90;99.90;;;;;;5036655;28;20404;-70
2023/08/11 03:37:57;;;;;;;12.82;10.55;;;15.70;99.90;;;;;;5036460;28;20041;-70
2023/08/11 03:40:23;;;;;;;14.73;10.48;;;15.50;99.90;;;;;;5036709;28;20382;-70
2023/08/11 03:42:48;;;;;;;15.75;11.13;;;15.50;99.90;;;;;;5017404;28;20041;-70
2023/08/11 03:45:14;;;;;;;12.75;10.88;;;15.70;99.90;;;;;;5032619;28;20463;-70
2023/08/11 03:47:40;;;;;;;11.80;10.07;;;15.40;99.90;;;;;;5011629;28;20405;-70
2023/08/11 03:50:07;;;;;;;12.98;9.93;;;15.20;99.90;;;;;;5054576;28;20095;-70
2023/08/11 03:52:33;;;;;;;12.75;10.32;;;15.40;99.90;;;;;;5054474;28;20041;-70
2023/08/11 03:54:59;;;;;;;15.73;11.55;;;15.10;99.90;;;;;;5054390;28;20069;-70
2023/08/11 03:57:25;;;;;;;14.88;10.95;;;15.20;99.90;;;;;;5054061;28;20071;-70
2023/08/11 03:59:52;;;;;;;12.10;10.43;;;15.40;99.90;;;;;;5054242;28;20037;-70
2023/08/11 04:02:17;;;;;;;14.60;11.82;;;15.10;99.90;;;;;;5053873;28;20045;-70
2023/08/11 04:04:43;;;;;;;13.07;10.85;;;15.30;99.90;;;;;;5053664;28;20458;-71
2023/08/11 04:07:09;;;;;;;13.07;11.30;;;15.20;99.90;;;;;;5036020;28;20033;-72
2023/08/11 04:09:39;;;;;;;17.17;12.13;;;15.40;99.90;;;;;;5036179;28;20036;-73
2023/08/11 04:12:06;;;;;;;14.75;12.15;;;15.40;99.90;;;;;;5053808;28;20119;-72
2023/08/11 04:14:32;;;;;;;13.25;10.57;;;15.20;99.90;;;;;;5035105;28;20605;-73
2023/08/11 04:16:57;;;;;;;14.75;12.15;;;15.20;99.90;;;;;;5035863;28;20041;-72
2023/08/11 04:19:23;;;;;;;15.25;11.57;;;15.40;99.90;;;;;;5036061;28;20041;-72
2023/08/11 04:21:48;;;;;;;20.20;11.82;;;15.10;99.90;;;;;;5053917;28;20563;-72
2023/08/11 04:24:15;;;;;;;13.88;10.68;;;15.40;99.90;;;;;;5053779;28;20041;-71
2023/08/11 04:26:41;;;;;;;14.98;10.85;;;15.40;99.90;;;;;;5035567;28;20108;-69
2023/08/11 04:29:06;;;;;;;14.75;10.50;;;15.20;99.90;;;;;;5019094;28;20150;-69
2023/08/11 04:31:32;;;;;;;15.77;11.82;;;15.30;99.90;;;;;;5053584;28;20053;-69
2023/08/11 04:33:57;;;;;;;13.90;9.55;;;15.40;99.90;;;;;;5035817;28;20040;-70
2023/08/11 04:36:23;;;;;;;14.48;10.38;;;15.30;99.90;;;;;;5053352;28;20037;-70
2023/08/11 04:38:49;;;;;;;11.80;9.75;;;15.60;99.90;;;;;;5053368;28;20120;-69
2023/08/11 04:41:14;;;;;;;13.27;9.50;;;15.40;99.90;;;;;;5035700;28;20039;-69
2023/08/11 04:43:40;;;;;;;13.38;9.95;;;15.60;99.90;;;;;;5035788;28;20107;-69
2023/08/11 04:46:05;;;;;;;11.50;9.77;;;15.40;99.90;;;;;;5035597;28;20083;-69
2023/08/11 04:48:31;;;;;;;13.18;10.07;;;15.50;99.90;;;;;;5053255;28;20045;-69
2023/08/11 04:50:58;;;;;;;12.95;10.13;;;15.70;99.90;;;;;;5053393;28;20105;-69
2023/08/11 04:53:24;;;;;;;12.93;10.05;;;15.40;99.90;;;;;;5035253;28;20045;-69
2023/08/11 04:55:51;;;;;;;15.85;10.88;;;15.60;99.90;;;;;;5035232;28;20055;-69
2023/08/11 04:58:16;;;;;;;12.57;9.30;;;15.80;99.90;;;;;;5034925;28;20060;-69
2023/08/11 05:00:43;;;;;;;13.70;10.55;;;15.80;99.90;;;;;;5052963;28;20086;-69
2023/08/11 05:03:08;;;;;;;13.48;10.00;;;15.80;99.90;;;;;;5052793;28;20647;-68
2023/08/11 05:05:34;;;;;;;12.85;9.57;;;15.90;99.90;;;;;;5052977;28;20040;-69
2023/08/11 05:08:00;;;;;;;10.68;9.18;;;15.80;99.90;;;;;;5052710;28;20037;-69
2023/08/11 05:10:25;;;;;;;13.32;9.20;;;16.20;99.90;;;;;;5018511;28;20045;-69
2023/08/11 05:12:51;;;;;;;12.95;9.13;;;16.00;99.90;;;;;;5052638;28;20041;-69
2023/08/11 05:15:16;;;;;;;13.80;9.30;;;16.40;99.90;;;;;;5052588;28;20040;-69
2023/08/11 05:17:42;;;;;;;13.40;8.98;;;16.40;99.90;;;;;;5052562;28;20037;-69
2023/08/11 05:20:09;;;;;;;12.98;10.30;;;16.30;99.90;;;;;;5052694;28;20037;-69
2023/08/11 05:22:35;;;;;;;12.75;7.88;;;16.60;99.90;;;;;;5052637;28;20128;-69
2023/08/11 05:25:05;;;;;;;11.65;8.68;;;16.60;99.90;;;;;;5034202;28;20048;-69
2023/08/11 05:27:31;;;;;;;10.95;8.45;;;16.90;99.90;;;;;;5051907;28;20040;-69
2023/08/11 05:29:57;;;;;;;9.70;8.70;;;17.10;99.90;;;;;;5034512;28;20037;-69
2023/08/11 05:32:23;;;;;;;9.38;8.15;;;17.20;99.90;;;;;;5052157;28;20033;-69
2023/08/11 05:34:49;;;;;;;10.18;7.57;;;17.30;99.90;;;;;;5052416;28;20057;-69
2023/08/11 05:37:15;;;;;;;10.23;8.23;;;17.30;99.90;;;;;;5034305;28;20075;-69
2023/08/11 05:39:42;;;;;;;9.00;7.22;;;17.60;99.90;;;;;;5052199;28;20064;-69
2023/08/11 05:42:08;;;;;;;11.27;7.15;;;17.60;99.90;;;;;;5034367;28;20033;-69
2023/08/11 05:44:34;;;;;;;8.73;7.20;;;18.20;99.90;;;;;;5034223;28;20045;-69
2023/08/11 05:46:59;;;;;;;9.60;6.90;;;18.20;99.90;;;;;;5052215;28;20417;-69
2023/08/11 05:49:25;;;;;;;9.07;6.72;;;18.10;99.90;;;;;;5034049;28;20439;-70
2023/08/11 05:51:51;;;;;;;9.48;6.70;;;18.30;99.90;;;;;;5034174;28;20036;-69
2023/08/11 05:54:16;;;;;;;10.23;6.32;;;18.40;99.90;;;;;;5051973;28;20451;-69
2023/08/11 05:56:42;;;;;;;8.90;6.45;;;18.80;99.90;;;;;;5033959;28;20041;-70
2023/08/11 05:59:07;;;;;;;10.10;6.97;;;18.90;99.90;;;;;;5033958;28;20069;-70
2023/08/11 06:01:34;;;;;;;10.48;7.10;;;19.30;99.90;;;;;;5052114;28;20064;-70
2023/08/11 06:03:59;;;;;;;9.07;5.68;;;19.20;99.90;;;;;;5034238;28;20526;-69
2023/08/11 06:06:26;;;;;;;7.85;5.50;;;19.70;99.90;;;;;;5051778;28;20069;-70
2023/08/11 06:08:54;;;;;;;9.15;6.63;;;19.80;99.90;;;;;;5033717;28;20076;-70
2023/08/11 06:11:20;;;;;;;11.38;5.63;;;19.90;99.90;;;;;;5017433;28;20040;-69
2023/08/11 06:13:46;;;;;;;9.23;6.60;;;19.90;99.90;;;;;;5033919;28;20072;-70
2023/08/11 06:16:11;;;;;;;8.07;6.03;;;20.10;99.90;;;;;;5051606;28;20134;-70
2023/08/11 06:18:37;;;;;;;8.95;6.13;;;20.40;99.90;;;;;;5051471;28;20090;-70
2023/08/11 06:21:04;;;;;;;8.27;6.47;;;20.50;99.90;;;;;;5051682;28;20114;-70
2023/08/11 06:23:31;;;;;;;11.55;5.82;;;20.70;99.90;;;;;;5051537;28;20037;-70
2023/08/11 06:25:56;;;;;;;8.15;5.45;;;20.70;99.90;;;;;;5051164;28;20476;-70
2023/08/11 06:28:22;;;;;;;8.38;5.40;;;20.70;99.90;;;;;;5033445;28;20083;-70
2023/08/11 06:30:48;;;;;;;7.85;5.63;;;21.00;99.90;;;;;;5051789;28;20381;-70
2023/08/11 06:33:13;;;;;;;6.45;5.35;;;20.90;99.90;;;;;;5051443;28;20180;-70
2023/08/11 06:35:39;;;;;;;10.68;5.85;;;21.20;99.90;;;;;;5051041;28;20043;-70
2023/08/11 06:38:04;;;;;;;7.63;5.60;;;21.30;99.90;;;;;;5024821;28;20041;-70
2023/08/11 06:40:30;;;;;;;7.50;5.10;;;21.50;99.90;;;;;;5031424;28;20044;-70
2023/08/11 06:42:55;;;;;;;6.40;5.32;;;21.60;99.90;;;;;;5031628;28;20067;-70
2023/08/11 06:45:21;;;;;;;6.38;5.07;;;21.60;99.90;;;;;;5030051;28;20120;-70
2023/08/11 06:47:47;;;;;;;6.85;4.60;;;21.80;99.90;;;;;;5029863;28;20041;-70
2023/08/11 06:50:12;;;;;;;7.93;5.97;;;21.90;99.90;;;;;;5031353;28;20034;-70
2023/08/11 06:52:38;;;;;;;8.80;5.32;;;21.70;99.90;;;;;;5031251;28;20045;-70
2023/08/11 06:55:05;;;;;;;6.53;5.32;;;22.00;99.90;;;;;;5031178;28;20036;-70
2023/08/11 06:57:30;;;;;;;6.97;4.45;;;21.90;99.90;;;;;;5013388;28;20528;-70
2023/08/11 06:59:56;;;;;;;8.82;4.70;;;22.00;99.90;;;;;;5031493;28;20034;-70
2023/08/11 07:02:22;;;;;;;5.07;4.45;;;22.20;99.90;;;;;;5013618;28;20555;-70
2023/08/11 07:04:48;;;;;;;9.10;4.38;;;22.30;99.90;;;;;;5013586;28;20041;-70
2023/08/11 07:07:13;;;;;;;6.38;4.43;;;22.40;99.90;;;;;;5031038;28;20037;-70
2023/08/11 07:09:39;;;;;;;7.30;3.72;;;22.50;99.90;;;;;;5031202;28;20034;-70
2023/08/11 07:12:05;;;;;;;6.10;4.45;;;22.60;99.90;;;;;;5045880;28;20037;-70
2023/08/11 07:14:31;;;;;;;6.68;4.70;;;22.80;99.90;;;;;;5031771;28;20051;-70
2023/08/11 07:16:57;;;;;;;9.20;4.63;;;23.00;99.90;;;;;;5024916;28;20036;-72
2023/08/11 07:19:23;;;;;;;8.25;4.78;;;23.30;99.90;;;;;;5050928;28;20116;-70
2023/08/11 07:21:48;;;;;;;5.50;4.07;;;23.30;99.90;;;;;;5050976;28;20029;-70
2023/08/11 07:24:14;;;;;;;6.05;3.97;;;23.70;99.90;;;;;;5033198;28;20090;-70
2023/08/11 07:26:40;;;;;;;5.30;3.83;;;23.70;99.90;;;;;;5016395;28;20033;-70
2023/08/11 07:29:05;;;;;;;8.63;5.32;;;23.80;99.90;;;;;;5033002;28;20045;-70
2023/08/11 07:31:31;;;;;;;5.57;4.28;;;24.00;99.90;;;;;;5033145;28;20048;-70
2023/08/11 07:33:56;;;;;;;7.20;3.97;;;24.00;99.90;;;;;;5033010;28;20042;-70
2023/08/11 07:36:22;;;;;;;5.47;4.00;;;24.30;99.90;;;;;;5033209;28;20122;-71
2023/08/11 07:38:47;;;;;;;4.95;3.35;;;24.30;99.90;;;;;;5050527;28;20033;-70
2023/08/11 07:41:13;;;;;;;4.82;3.60;;;24.40;99.90;;;;;;5032922;28;20412;-70
2023/08/11 07:43:39;;;;;;;7.95;3.92;;;24.50;99.90;;;;;;5033307;28;20099;-70
2023/08/11 07:46:05;;;;;;;5.13;4.13;;;24.50;99.90;;;;;;5033003;28;20037;-70
2023/08/11 07:48:30;;;;;;;6.28;3.95;;;24.70;99.90;;;;;;5033986;28;20554;-71
2023/08/11 07:50:56;;;;;;;5.50;3.38;;;24.70;99.90;;;;;;5033854;28;20454;-70
2023/08/11 07:53:21;;;;;;;4.45;3.92;;;25.00;99.90;;;;;;5047336;28;20071;-71
2023/08/11 07:55:47;;;;;;;8.30;4.30;;;25.00;99.90;;;;;;5035290;28;20037;-71
2023/08/11 07:58:13;;;;;;;5.45;4.00;;;24.90;99.90;;;;;;5027393;28;20536;-70
2023/08/11 08:00:41;;;;;;;6.45;4.65;;;24.90;99.90;;;;;;5019799;28;20124;-71
2023/08/11 08:03:07;;;;;;;7.63;3.33;;;25.00;99.90;;;;;;5045997;28;20469;-71
2023/08/11 08:05:33;;;;;;;5.10;3.55;;;25.40;99.90;;;;;;5048014;28;20036;-71
2023/08/11 08:07:59;;;;;;;6.70;3.90;;;25.60;99.90;;;;;;5010883;28;20039;-71
2023/08/11 08:10:25;;;;;;;4.85;3.10;;;25.80;99.90;;;;;;5027075;28;20131;-71
2023/08/11 08:12:51;;;;;;;6.07;3.20;;;26.10;99.90;;;;;;5027224;28;20041;-71
2023/08/11 08:15:17;;;;;;;6.28;3.47;;;26.10;99.20;;;;;;5023933;28;20098;-71
2023/08/11 08:17:44;;;;;;;3.67;3.00;;;26.20;98.80;;;;;;5045175;28;20500;-71
2023/08/11 08:20:13;;;;;;;4.18;3.03;;;26.40;97.80;;;;;;5053950;28;20041;-71
2023/08/11 08:22:40;;;;;;;6.10;3.25;;;26.30;96.90;;;;;;5052616;28;20466;-71
2023/08/11 08:25:06;;;;;;;4.63;2.92;;;26.40;97.20;;;;;;5033934;28;20496;-72
2023/08/11 08:27:33;;;;;;;4.90;3.45;;;26.50;96.70;;;;;;5035263;28;20048;-71
2023/08/11 08:29:58;;;;;;;5.65;2.90;;;26.50;95.50;;;;;;5045298;28;20040;-71
2023/08/11 08:32:24;;;;;;;5.32;3.60;;;26.60;96.00;;;;;;5035617;28;20033;-71
2023/08/11 08:34:50;;;;;;;5.88;3.50;;;26.60;95.60;;;;;;5045118;28;20044;-71
2023/08/11 08:37:19;;;;;;;3.50;2.97;;;26.70;95.50;;;;;;5036284;28;20041;-71
2023/08/11 08:39:46;;;;;;;4.78;2.95;;;26.70;94.90;;;;;;5027226;28;20029;-71
2023/08/11 08:42:14;;;;;;;3.90;3.13;;;26.80;94.90;;;;;;5049390;28;20045;-72
2023/08/11 08:44:41;;;;;;;5.97;3.30;;;26.70;94.40;;;;;;5029824;28;20056;-71
2023/08/11 08:47:07;;;;;;;4.32;3.22;;;27.00;94.30;;;;;;5053050;28;20037;-71
2023/08/11 08:49:36;;;;;;;3.95;2.88;;;27.00;93.90;;;;;;5027277;28;20419;-72
2023/08/11 08:52:02;;;;;;;5.95;3.03;;;27.00;93.20;;;;;;5034376;28;20088;-71
2023/08/11 08:54:28;;;;;;;6.95;3.53;;;27.10;93.10;;;;;;5026758;28;20037;-71
2023/08/11 08:56:54;;;;;;;4.88;3.28;;;27.20;93.70;;;;;;5034433;28;20083;-72
2023/08/11 08:59:21;;;;;;;3.85;3.25;;;27.40;93.00;;;;;;5008025;28;20487;-71
2023/08/11 09:01:47;;;;;;;4.00;3.25;;;27.40;93.10;;;;;;5029375;28;20108;-71
2023/08/11 09:04:15;;;;;;;5.90;3.17;;;27.60;92.80;;;;;;5051046;28;20088;-71
2023/08/11 09:06:41;;;;;;;4.53;3.30;;;27.60;92.10;;;;;;5030003;28;20037;-71
2023/08/11 09:09:09;;;;;;;4.80;3.28;;;27.70;91.80;;;;;;5034150;28;20051;-71
2023/08/11 09:11:34;;;;;;;6.10;3.70;;;27.60;91.10;;;;;;5046090;28;20034;-72
2023/08/11 09:14:08;;;;;;;6.20;3.08;;;27.70;92.00;;;;;;5014777;28;20386;-71
2023/08/11 09:16:34;;;;;;;6.57;2.95;;;27.70;91.30;;;;;;5047743;28;20037;-71
2023/08/11 09:19:01;;;;;;;5.80;2.80;;;27.90;91.80;;;;;;5033509;28;20108;-71
2023/08/11 09:21:26;;;;;;;7.28;3.10;;;28.00;93.40;;;;;;5032057;28;20037;-71
2023/08/11 09:23:56;;;;;;;5.97;2.60;;;27.90;92.50;;;;;;5024726;28;20048;-71
2023/08/11 09:26:23;;;;;;;5.55;2.50;;;27.80;92.00;;;;;;5028910;28;20048;-71
2023/08/11 09:28:50;;;;;;;5.38;3.17;;;27.90;93.30;;;;;;5033024;28;20040;-71
2023/08/11 09:31:15;;;;;;;5.43;2.42;;;27.70;90.60;;;;;;5028740;28;20037;-71
2023/08/11 09:33:41;;;;;;;5.95;3.05;;;27.80;90.90;;;;;;5027644;28;20052;-72
2023/08/11 09:36:07;;;;;;;5.75;3.22;;;27.90;92.70;;;;;;5026358;28;20051;-72
2023/08/11 09:38:34;;;;;;;3.80;2.60;;;27.90;91.10;;;;;;5026791;28;20044;-71
2023/08/11 09:41:05;;;;;;;3.35;2.47;;;28.00;92.50;;;;;;5048105;28;20033;-71
2023/08/11 09:43:31;;;;;;;5.63;2.40;;;28.00;92.30;;;;;;5030698;28;20045;-71
2023/08/11 09:45:59;;;;;;;4.18;2.70;;;27.90;90.90;;;;;;5033424;28;20522;-72
2023/08/11 09:48:28;;;;;;;5.63;3.03;;;28.00;90.50;;;;;;5031359;28;20561;-71
2023/08/11 09:50:55;;;;;;;5.50;2.60;;;27.90;89.40;;;;;;5012153;28;20037;-71
2023/08/11 09:53:23;;;;;;;5.05;3.10;;;27.70;90.50;;;;;;5019940;28;20064;-71
2023/08/11 09:55:49;;;;;;;5.20;3.05;;;27.70;91.60;;;;;;5038175;28;20060;-71
2023/08/11 09:58:17;;;;;;;6.20;2.80;;;27.70;91.00;;;;;;5016633;28;20396;-71
2023/08/11 10:00:45;;;;;;;3.85;2.67;;;27.80;91.20;;;;;;5026723;28;20416;-70
2023/08/11 10:03:15;;;;;;;4.78;2.70;;;27.60;93.30;;;;;;5029733;28;20055;-71
2023/08/11 10:05:43;;;;;;;3.03;2.13;;;27.60;93.30;;;;;;5027429;28;20052;-71
2023/08/11 10:08:18;;;;;;;4.20;2.45;;;27.70;93.20;;;;;;5029403;28;20045;-71
2023/08/11 10:10:44;;;;;;;5.60;2.70;;;27.70;91.50;;;;;;5021731;28;20049;-71
2023/08/11 10:13:22;;;;;;;4.53;2.60;;;27.70;92.30;;;;;;5030316;28;20094;-70
2023/08/11 10:15:50;;;;;;;7.18;2.50;;;27.60;93.70;;;;;;5025751;28;20033;-71
2023/08/11 10:18:16;;;;;;;8.88;3.03;;;27.50;91.80;;;;;;5046463;28;20048;-71
2023/08/11 10:20:42;;;;;;;6.57;2.60;;;27.40;91.60;;;;;;5016097;28;20041;-70
2023/08/11 10:23:09;;;;;;;5.07;2.60;;;27.40;91.00;;;;;;5026957;28;20045;-71
2023/08/11 10:25:36;;;;;;;3.92;2.90;;;27.40;92.40;;;;;;5026106;28;20052;-72
2023/08/11 10:28:06;;;;;;;4.10;2.55;;;27.50;92.70;;;;;;5045974;28;20045;-71
2023/08/11 10:30:33;;;;;;;6.68;2.30;;;27.30;92.40;;;;;;5025895;28;20056;-72
2023/08/11 10:33:07;;;;;;;4.57;2.75;;;27.40;94.10;;;;;;5029596;28;20452;-71
2023/08/11 10:35:47;;;;;;;4.80;2.60;;;27.40;92.90;;;;;;5025990;28;20082;-71
2023/08/11 10:38:27;;;;;;;5.72;2.70;;;27.50;94.70;;;;;;5045219;28;20061;-71
2023/08/11 10:41:16;;;;;;;5.00;2.20;;;27.40;93.20;;;;;;5041624;28;20045;-71
2023/08/11 10:43:47;;;;;;;3.70;2.60;;;27.30;92.00;;;;;;5028913;28;20044;-71
2023/08/11 10:46:18;;;;;;;8.88;2.88;;;27.30;92.70;;;;;;5046378;28;20044;-71
2023/08/11 10:48:44;;;;;;;5.20;2.92;;;27.40;95.30;;;;;;5014996;28;20037;-71
2023/08/11 10:51:42;;;;;;;5.38;2.33;;;27.10;95.20;;;;;;5023103;28;20041;-71
2023/08/11 10:54:09;;;;;;;5.43;2.47;;;26.90;97.90;;;;;;4988589;28;20106;-71
2023/08/11 10:56:36;;;;;;;3.75;2.15;;;26.90;96.60;;;;;;5042545;28;20114;-71
2023/08/11 10:59:17;;;;;;;4.80;2.13;;;26.90;95.10;;;;;;5027078;28;20045;-71
2023/08/11 11:01:47;;;;;;;3.25;2.05;;;26.90;94.50;;;;;;5043104;28;20041;-71
2023/08/11 11:04:14;;;;;;;5.82;2.30;;;26.90;94.00;;;;;;5026148;28;20100;-71
2023/08/11 11:06:41;;;;;;;3.35;2.47;;;26.80;93.70;;;;;;5042547;28;20048;-71
2023/08/11 11:09:10;;;;;;;5.70;3.00;;;26.80;94.20;;;;;;5020057;28;20134;-71
2023/08/11 11:11:36;;;;;;;5.47;2.40;;;26.70;95.40;;;;;;5026942;28;20067;-71
2023/08/11 11:14:07;;;;;;;6.72;2.72;;;26.80;95.60;;;;;;5026542;28;20085;-72
2023/08/11 11:16:33;;;;;;;6.78;2.30;;;26.90;93.90;;;;;;5028463;28;20044;-72
2023/08/11 11:19:00;;;;;;;3.63;2.70;;;27.00;93.40;;;;;;5043074;28;20032;-71
2023/08/11 11:21:26;;;;;;;6.18;2.28;;;27.00;94.50;;;;;;5043592;28;20033;-71
2023/08/11 11:23:52;;;;;;;4.88;2.60;;;27.10;94.30;;;;;;5052584;28;20477;-71
2023/08/11 11:26:22;;;;;;;3.10;1.90;;;26.90;95.90;;;;;;5030135;28;20128;-71
2023/08/11 11:28:47;;;;;;;3.78;2.08;;;26.90;94.50;;;;;;5035006;28;20512;-71
2023/08/11 11:31:15;;;;;;;2.78;1.95;;;27.00;93.10;;;;;;5049653;28;20083;-71
2023/08/11 11:33:41;;;;;;;4.78;2.10;;;27.10;92.10;;;;;;5031850;28;20438;-71
2023/08/11 11:36:07;;;;;;;3.95;2.17;;;27.20;91.90;;;;;;5033870;28;20033;-70
2023/08/11 11:38:33;;;;;;;4.22;2.42;;;27.30;91.70;;;;;;5034504;28;20044;-71
2023/08/11 11:40:59;;;;;;;4.30;2.38;;;27.30;92.20;;;;;;5028965;28;20037;-71
2023/08/11 11:43:25;;;;;;;9.57;2.33;;;27.40;91.30;;;;;;5044443;28;20508;-71
2023/08/11 11:45:52;;;;;;;2.75;2.00;;;27.50;90.70;;;;;;5052170;28;20086;-71
2023/08/11 11:48:21;;;;;;;4.55;2.00;;;27.40;92.30;;;;;;5051833;28;20048;-71
2023/08/11 11:50:47;;;;;;;6.65;2.50;;;27.30;93.60;;;;;;5034060;28;20040;-71
2023/08/11 11:53:13;;;;;;;3.58;2.13;;;27.20;93.20;;;;;;5042706;28;20041;-71
2023/08/11 11:55:46;;;;;;;3.20;1.75;;;27.20;91.60;;;;;;5029533;28;20037;-71
2023/08/11 11:58:15;;;;;;;4.93;2.40;;;27.30;90.70;;;;;;5029427;28;20046;-71
2023/08/11 12:00:43;;;;;;;3.72;2.28;;;27.30;88.70;;;;;;5052942;28;20555;-71
2023/08/11 12:03:09;;;;;;;3.95;2.50;;;27.50;89.80;;;;;;5027458;28;20056;-71
2023/08/11 12:05:35;;;;;;;6.30;2.20;;;27.40;87.60;;;;;;5036538;28;20044;-71
2023/08/11 12:08:16;;;;;;;8.32;3.78;;;27.50;90.50;;;;;;5027219;28;20044;-71
2023/08/11 12:10:47;;;;;;;3.88;2.10;;;27.60;90.30;;;;;;5032514;28;20040;-71
2023/08/11 12:13:13;;;;;;;6.55;2.25;;;27.60;90.50;;;;;;5033076;28;20040;-71
2023/08/11 12:15:39;;;;;;;5.97;2.53;;;27.60;91.00;;;;;;5039134;28;20060;-71
2023/08/11 12:18:05;;;;;;;10.18;3.00;;;27.70;92.90;;;;;;5034446;28;20048;-71
2023/08/11 12:20:31;;;;;;;5.72;2.42;;;27.60;93.50;;;;;;5031492;28;20072;-71
2023/08/11 12:22:56;;;;;;;6.40;2.30;;;27.60;91.60;;;;;;5047410;28;20477;-72
2023/08/11 12:25:23;;;;;;;7.22;2.53;;;27.60;92.40;;;;;;5026528;28;20052;-71
2023/08/11 12:27:48;;;;;;;4.85;2.08;;;27.60;91.70;;;;;;5052456;28;20036;-72
2023/08/11 12:30:15;;;;;;;4.82;2.10;;;27.70;90.80;;;;;;5034555;28;20090;-71
2023/08/11 12:32:41;;;;;;;10.45;3.00;;;27.80;90.40;;;;;;5046558;28;20044;-71
2023/08/11 12:35:07;;;;;;;9.02;1.95;;;27.70;91.80;;;;;;5034210;28;20055;-71
2023/08/11 12:37:32;;;;;;;3.28;2.20;;;27.60;92.70;;;;;;5028977;28;20142;-71
2023/08/11 12:39:58;;;;;;;4.70;2.00;;;27.60;92.90;;;;;;5052714;28;20443;-71